Time;durP1;ratioP1;P1;durP2;ratioP2;P2;SDS_P1;SDS_P2;PMS_P1;PMS_P2;Temp;Humidity;BMP_temperature;BMP_pressure;BME280_temperature;BME280_humidity;BME280_pressure;Samples;Min_cycle;Max_cycle;Signal;HPM_P1;HPM_P2
2023/10/13 00:02:22;0.00;0.00;0.62;0.00;0.00;0.62;2.60;2.17;;;26.30;32.40;;;;;;2273824;60;20435;-60
2023/10/13 00:05:09;0.00;0.00;0.62;0.00;0.00;0.62;2.97;2.27;;;26.30;32.40;;;;;;2274302;60;20377;-57
2023/10/13 00:07:55;0.00;0.00;0.62;0.00;0.00;0.62;2.43;2.10;;;26.30;32.40;;;;;;2277579;60;20368;-61
2023/10/13 00:10:40;0.00;0.00;0.62;0.00;0.00;0.62;2.70;2.10;;;26.30;32.50;;;;;;2277861;60;20365;-61
2023/10/13 00:13:24;0.00;0.00;0.62;0.00;0.00;0.62;2.60;2.20;;;26.30;32.40;;;;;;2277990;60;20396;-63
2023/10/13 00:16:10;0.00;0.00;0.62;0.00;0.00;0.62;3.03;1.90;;;26.30;32.40;;;;;;2277537;60;20528;-64
2023/10/13 00:18:57;0.00;0.00;0.62;0.00;0.00;0.62;2.53;1.83;;;26.30;32.50;;;;;;2277748;60;20422;-62
2023/10/13 00:21:42;0.00;0.00;0.62;0.00;0.00;0.62;3.20;1.97;;;26.30;32.50;;;;;;2277889;60;20949;-58
2023/10/13 00:24:30;0.00;0.00;0.62;0.00;0.00;0.62;2.20;1.90;;;26.30;32.50;;;;;;2278248;60;20434;-61
2023/10/13 00:30:33;0.00;0.00;0.62;0.00;0.00;0.62;2.87;1.97;;;26.30;32.60;;;;;;2260467;61;20983;-60
2023/10/13 00:33:22;0.00;0.00;0.62;0.00;0.00;0.62;2.33;1.80;;;26.30;32.60;;;;;;2395408;40;20412;-62
2023/10/13 00:36:08;0.00;0.00;0.62;0.00;0.00;0.62;2.90;2.17;;;26.30;32.60;;;;;;2270691;60;20921;-59
2023/10/13 00:38:56;0.00;0.00;0.62;0.00;0.00;0.62;2.10;1.60;;;26.30;33.20;;;;;;2273760;60;20358;-58
2023/10/13 00:41:52;0.00;0.00;0.62;0.00;0.00;0.62;2.20;1.83;;;26.30;32.60;;;;;;2269378;61;20398;-58
2023/10/13 00:44:44;0.00;0.00;0.62;0.00;0.00;0.62;2.97;2.17;;;26.30;32.60;;;;;;2265535;61;20355;-60
2023/10/13 00:47:47;0.00;0.00;0.62;0.00;0.00;0.62;2.20;1.93;;;26.30;32.60;;;;;;2265936;61;20446;-60
2023/10/13 00:50:36;0.00;0.00;0.62;0.00;0.00;0.62;2.93;2.03;;;26.30;32.60;;;;;;2265736;61;20452;-63
2023/10/13 00:53:21;0.00;0.00;0.62;0.00;0.00;0.62;2.50;2.30;;;26.30;32.60;;;;;;2265675;61;20471;-64
2023/10/13 00:56:08;0.00;0.00;0.62;0.00;0.00;0.62;2.77;2.10;;;26.30;32.60;;;;;;2265605;61;20363;-62
2023/10/13 00:58:57;0.00;0.00;0.62;0.00;0.00;0.62;4.37;1.97;;;26.30;32.60;;;;;;2268466;61;20946;-62
2023/10/13 01:01:45;0.00;0.00;0.62;0.00;0.00;0.62;4.53;2.00;;;26.30;32.70;;;;;;2269074;61;20542;-60
2023/10/13 01:04:31;0.00;0.00;0.62;0.00;0.00;0.62;3.30;2.37;;;26.30;32.70;;;;;;2269216;61;20925;-62
2023/10/13 01:07:16;0.00;0.00;0.62;0.00;0.00;0.62;3.80;2.47;;;26.30;32.70;;;;;;2265749;61;20362;-60
2023/10/13 01:10:04;0.00;0.00;0.62;0.00;0.00;0.62;3.23;2.10;;;26.30;32.70;;;;;;2268814;61;20363;-59
2023/10/13 01:12:52;0.00;0.00;0.62;0.00;0.00;0.62;2.63;2.07;;;26.30;32.70;;;;;;2265277;61;20477;-60
2023/10/13 01:15:40;0.00;0.00;0.62;0.00;0.00;0.62;2.37;2.07;;;26.30;32.70;;;;;;2516202;53;20815;-60
2023/10/13 01:18:28;0.00;0.00;0.62;0.00;0.00;0.62;2.60;2.00;;;26.30;32.70;;;;;;2257256;61;20459;-59
2023/10/13 01:21:15;0.00;0.00;0.62;0.00;0.00;0.62;2.53;2.00;;;26.30;32.80;;;;;;2262733;61;20448;-62
2023/10/13 01:24:07;0.00;0.00;0.62;0.00;0.00;0.62;2.90;2.30;;;26.30;32.80;;;;;;2268967;61;20355;-62
2023/10/13 01:26:52;0.00;0.00;0.62;0.00;0.00;0.62;2.50;2.20;;;26.30;32.80;;;;;;2269110;61;20789;-56
2023/10/13 01:29:37;0.00;0.00;0.62;0.00;0.00;0.62;3.37;2.30;;;26.30;32.80;;;;;;2268473;61;20777;-62
2023/10/13 01:32:23;0.00;0.00;0.62;0.00;0.00;0.62;3.00;2.50;;;26.30;32.80;;;;;;2269112;61;20383;-60
2023/10/13 01:35:08;0.00;0.00;0.62;0.00;0.00;0.62;2.67;2.47;;;26.30;33.50;;;;;;2268461;61;20662;-60
2023/10/13 01:37:53;0.00;0.00;0.62;0.00;0.00;0.62;3.40;2.73;;;26.30;33.50;;;;;;2268532;61;20374;-60
2023/10/13 01:40:39;0.00;0.00;0.62;0.00;0.00;0.62;2.83;2.13;;;26.30;32.80;;;;;;2268927;61;20789;-61
2023/10/13 01:43:23;0.00;0.00;0.62;0.00;0.00;0.62;3.90;2.90;;;26.30;32.80;;;;;;2267508;61;20408;-60
2023/10/13 01:46:09;0.00;0.00;0.62;0.00;0.00;0.62;2.60;2.23;;;26.30;32.90;;;;;;2264986;61;20360;-62
2023/10/13 01:48:57;0.00;0.00;0.62;0.00;0.00;0.62;3.47;2.60;;;26.30;32.90;;;;;;2264612;61;20433;-62
2023/10/13 01:51:42;0.00;0.00;0.62;0.00;0.00;0.62;2.70;2.40;;;26.30;32.90;;;;;;2264771;61;20415;-59
2023/10/13 01:54:28;0.00;0.00;0.62;0.00;0.00;0.62;3.03;2.40;;;26.30;32.90;;;;;;2261397;61;20925;-63
2023/10/13 01:57:17;0.00;0.00;0.62;0.00;0.00;0.62;3.43;2.77;;;26.30;32.90;;;;;;2264797;61;20395;-61
2023/10/13 02:00:18;0.00;0.00;0.62;0.00;0.00;0.62;3.60;3.00;;;26.30;32.90;;;;;;2261374;61;20920;-59
2023/10/13 02:03:04;0.00;0.00;0.62;0.00;0.00;0.62;3.23;2.93;;;26.30;32.90;;;;;;2264273;61;20375;-61
2023/10/13 02:05:52;0.00;0.00;0.62;0.00;0.00;0.62;3.37;2.80;;;26.30;33.00;;;;;;2261435;61;20867;-61
2023/10/13 02:08:40;0.00;0.00;0.62;0.00;0.00;0.62;3.10;2.80;;;26.30;33.00;;;;;;2261398;61;20376;-61
2023/10/13 02:11:24;0.00;0.00;0.62;0.00;0.00;0.62;3.40;3.10;;;26.30;33.00;;;;;;2265001;61;20402;-57
2023/10/13 02:14:11;0.00;0.00;0.62;0.00;0.00;0.62;3.37;3.07;;;26.30;33.00;;;;;;2261340;61;20442;-58
2023/10/13 02:17:11;0.00;0.00;0.62;0.00;0.00;0.62;3.37;2.80;;;26.30;33.70;;;;;;2261872;61;20582;-59
2023/10/13 02:19:56;0.00;0.00;0.62;0.00;0.00;0.62;3.23;2.93;;;26.30;33.00;;;;;;2264594;61;20407;-57
2023/10/13 02:22:48;0.00;0.00;0.62;0.00;0.00;0.62;3.60;3.17;;;26.30;33.00;;;;;;2264793;61;20479;-62
2023/10/13 02:25:35;0.00;0.00;0.62;0.00;0.00;0.62;3.27;2.90;;;26.30;33.00;;;;;;2261547;61;20359;-62
2023/10/13 02:28:28;0.00;0.00;0.62;0.00;0.00;0.62;3.87;2.70;;;26.30;33.00;;;;;;2264260;61;20387;-62
2023/10/13 02:31:14;0.00;0.00;0.62;0.00;0.00;0.62;3.70;2.97;;;26.30;33.00;;;;;;2264798;61;20448;-62
2023/10/13 02:34:00;0.00;0.00;0.62;0.00;0.00;0.62;3.23;2.93;;;26.30;33.00;;;;;;2264683;61;20522;-62
2023/10/13 02:36:48;0.00;0.00;0.62;0.00;0.00;0.62;4.03;3.27;;;26.30;33.10;;;;;;2685930;45;20384;-60
2023/10/13 02:39:36;0.00;0.00;0.62;0.00;0.00;0.62;5.40;3.80;;;26.30;33.10;;;;;;2264213;61;20372;-58
2023/10/13 02:42:23;0.00;0.00;0.62;0.00;0.00;0.62;4.07;3.00;;;26.30;33.10;;;;;;2264759;61;20408;-62
2023/10/13 02:45:12;0.00;0.00;0.62;0.00;0.00;0.62;4.80;3.67;;;26.30;33.10;;;;;;2264835;61;20430;-59
2023/10/13 02:48:17;0.00;0.00;0.62;0.00;0.00;0.62;4.10;3.53;;;26.30;33.10;;;;;;2261279;61;20392;-62
2023/10/13 02:51:15;0.00;0.00;0.62;0.00;0.00;0.62;4.10;3.70;;;26.30;33.10;;;;;;2265848;55;20391;31
2023/10/13 02:54:02;0.00;0.00;0.62;0.00;0.00;0.62;3.90;3.20;;;26.30;33.20;;;;;;2270522;61;20457;-60
2023/10/13 02:56:56;0.00;0.00;0.62;0.00;0.00;0.62;4.57;4.07;;;26.20;33.10;;;;;;2265579;61;20484;-58
2023/10/13 02:59:48;0.00;0.00;0.62;0.00;0.00;0.62;5.53;3.83;;;26.30;33.10;;;;;;2268436;61;20390;-60
2023/10/13 03:02:32;0.00;0.00;0.62;0.00;0.00;0.62;4.40;3.87;;;26.30;33.10;;;;;;2268480;61;20382;-57
2023/10/13 03:05:18;0.00;0.00;0.62;0.00;0.00;0.62;5.07;3.37;;;26.30;33.20;;;;;;2272691;61;20454;-60
2023/10/13 03:08:04;0.00;0.00;0.62;0.00;0.00;0.62;4.10;3.70;;;26.30;33.20;;;;;;2271982;61;20366;-61
2023/10/13 03:10:50;0.00;0.00;0.62;0.00;0.00;0.62;4.83;3.83;;;26.30;33.20;;;;;;2272538;61;20819;-67
2023/10/13 03:13:35;0.00;0.00;0.62;0.00;0.00;0.62;4.20;3.73;;;26.30;33.20;;;;;;2269218;61;20840;-64
2023/10/13 03:16:19;0.00;0.00;0.62;0.00;0.00;0.62;4.13;3.73;;;26.30;33.20;;;;;;2272781;61;20412;-63
2023/10/13 03:19:07;0.00;0.00;0.62;0.00;0.00;0.62;4.20;3.80;;;26.30;33.20;;;;;;2271909;61;20784;-63
2023/10/13 03:21:57;0.00;0.00;0.62;0.00;0.00;0.62;4.97;4.50;;;26.30;33.20;;;;;;2272450;61;20457;-63
2023/10/13 03:24:46;0.00;0.00;0.62;0.00;0.00;0.62;4.20;3.80;;;26.30;33.30;;;;;;2269428;61;20366;-66
2023/10/13 03:30:41;0.00;0.00;0.62;0.00;0.00;0.62;4.40;3.87;;;26.30;33.30;;;;;;2272676;61;20370;-63
2023/10/13 03:33:26;0.00;0.00;0.62;0.00;0.00;0.62;4.40;4.00;;;26.30;33.30;;;;;;2272296;61;20432;-65
2023/10/13 03:36:27;0.00;0.00;0.62;0.00;0.00;0.62;4.00;3.60;;;26.30;33.30;;;;;;2267653;61;20766;-63
2023/10/13 03:39:13;0.00;0.00;0.62;0.00;0.00;0.62;4.50;3.93;;;26.30;33.30;;;;;;2267807;61;20408;-62
2023/10/13 03:41:59;0.00;0.00;0.62;0.00;0.00;0.62;4.20;3.80;;;26.30;33.30;;;;;;2270070;61;20409;-63
2023/10/13 03:44:46;0.00;0.00;0.62;0.00;0.00;0.62;5.43;4.10;;;26.30;33.30;;;;;;2272515;61;20769;-64
2023/10/13 03:47:32;0.00;0.00;0.62;0.00;0.00;0.62;6.40;4.90;;;26.30;33.30;;;;;;2269264;61;20362;-63
2023/10/13 03:50:22;0.00;0.00;0.62;0.00;0.00;0.62;5.20;4.40;;;26.30;33.40;;;;;;2272274;61;20363;-63
2023/10/13 03:53:12;0.00;0.00;0.62;0.00;0.00;0.62;4.17;3.77;;;26.30;33.40;;;;;;2269093;61;20397;-63
2023/10/13 03:56:26;0.00;0.00;0.62;0.00;0.00;0.62;5.33;4.83;;;26.30;33.40;;;;;;2272265;61;20366;-63
2023/10/13 04:02:02;0.00;0.00;0.62;0.00;0.00;0.62;4.57;4.17;;;26.30;33.40;;;;;;2272555;61;20789;-63
2023/10/13 04:04:53;0.00;0.00;0.62;0.00;0.00;0.62;4.97;4.47;;;26.30;33.40;;;;;;2272419;61;20354;-63
2023/10/13 04:08:44;0.00;0.00;0.62;0.00;0.00;0.62;5.27;4.50;;;26.30;33.40;;;;;;2272407;61;20374;-63
2023/10/13 04:16:54;0.00;0.00;0.62;0.00;0.00;0.62;7.57;5.60;;;26.30;33.40;;;;;;2259138;61;20421;-65
2023/10/13 04:20:12;0.00;0.00;0.62;0.00;0.00;0.62;7.53;6.30;;;26.20;33.40;;;;;;2259348;61;20397;-67
2023/10/13 04:31:24;0.00;0.00;0.62;0.00;0.00;0.62;10.10;7.30;;;26.30;33.50;;;;;;2272919;61;20362;-64
2023/10/13 04:34:18;0.00;0.00;0.62;0.00;0.00;0.62;11.67;7.33;;;26.20;33.50;;;;;;2272875;61;20386;-64
2023/10/13 04:37:28;0.00;0.00;0.62;0.00;0.00;0.62;10.27;6.80;;;26.20;33.50;;;;;;2273020;61;20406;-64
2023/10/13 04:40:14;0.00;0.00;0.62;0.00;0.00;0.62;10.80;9.10;;;26.20;33.50;;;;;;2272766;61;20377;-64
2023/10/13 04:43:04;0.00;0.00;0.62;0.00;0.00;0.62;9.77;7.47;;;26.20;33.50;;;;;;2272953;61;20797;-64
2023/10/13 04:45:54;0.00;0.00;0.62;0.00;0.00;0.62;15.53;8.23;;;26.20;33.50;;;;;;2273184;61;20404;-63
2023/10/13 04:48:46;0.00;0.00;0.62;0.00;0.00;0.62;8.87;7.97;;;26.20;33.60;;;;;;2272517;61;20349;-64
2023/10/13 04:51:49;0.00;0.00;0.62;0.00;0.00;0.62;11.60;8.60;;;26.20;33.60;;;;;;2273264;61;20382;-64
2023/10/13 04:57:47;0.00;0.00;0.62;0.00;0.00;0.62;11.00;8.90;;;26.20;33.60;;;;;;2273236;61;20358;-67
2023/10/13 05:03:53;0.00;0.00;0.62;0.00;0.00;0.62;10.63;8.57;;;26.20;33.60;;;;;;2272896;61;20354;-64
2023/10/13 05:44:33;0.00;0.00;0.62;0.00;0.00;0.62;11.57;8.93;;;26.20;33.60;;;;;;2273060;61;20412;-64
2023/10/13 06:29:40;0.00;0.00;0.62;0.00;0.00;0.62;30.80;22.50;;;26.20;34.00;;;;;;2272366;61;20362;-64
2023/10/13 06:32:25;0.00;0.00;0.62;0.00;0.00;0.62;38.40;26.93;;;26.20;34.00;;;;;;2272653;61;20451;-64
2023/10/13 06:35:22;0.00;0.00;0.62;0.00;0.00;0.62;40.27;29.17;;;26.20;34.00;;;;;;2272644;61;20795;-66
2023/10/13 06:38:20;0.00;0.00;0.62;0.00;0.00;0.62;40.80;29.60;;;26.20;34.00;;;;;;2272233;61;20427;-63
2023/10/13 06:41:07;0.00;0.00;0.62;0.00;0.00;0.62;40.07;29.17;;;26.30;34.10;;;;;;2272362;61;20401;-64
2023/10/13 06:44:05;0.00;0.00;0.62;0.00;0.00;0.62;39.13;28.20;;;26.20;34.10;;;;;;2272663;61;20363;-67
2023/10/13 06:46:49;0.00;0.00;0.62;0.00;0.00;0.62;41.37;29.67;;;26.20;34.10;;;;;;2269282;61;20365;-64
2023/10/13 06:49:38;0.00;0.00;0.62;0.00;0.00;0.62;38.43;28.37;;;26.20;34.10;;;;;;2272336;61;20867;-65
2023/10/13 06:52:23;0.00;0.00;0.62;0.00;0.00;0.62;42.90;27.80;;;26.30;34.20;;;;;;2272471;61;20414;-63
2023/10/13 06:55:17;0.00;0.00;0.62;0.00;0.00;0.62;38.60;26.60;;;26.20;34.10;;;;;;2272311;61;20389;-63
2023/10/13 06:58:05;0.00;0.00;0.62;0.00;0.00;0.62;35.97;26.87;;;26.20;34.10;;;;;;2272475;61;20836;-67
2023/10/13 07:00:53;0.00;0.00;0.62;0.00;0.00;0.62;37.70;25.63;;;26.20;34.10;;;;;;2272483;61;20420;-64
2023/10/13 07:03:37;0.00;0.00;0.62;0.00;0.00;0.62;35.37;24.23;;;26.20;34.10;;;;;;2272621;61;20385;-64
2023/10/13 07:06:22;0.00;0.00;0.62;0.00;0.00;0.62;28.13;21.10;;;26.20;34.10;;;;;;2272576;61;20509;-63
2023/10/13 07:09:15;0.00;0.00;0.62;0.00;0.00;0.62;26.40;19.33;;;26.20;34.10;;;;;;2271877;61;20841;-63
2023/10/13 07:12:03;0.00;0.00;0.62;0.00;0.00;0.62;27.33;19.10;;;26.20;34.10;;;;;;2272409;61;20448;-65
2023/10/13 07:14:51;0.00;0.00;0.62;0.00;0.00;0.62;22.30;17.63;;;26.20;34.10;;;;;;2272365;61;20444;-65
2023/10/13 07:17:39;0.00;0.00;0.62;0.00;0.00;0.62;23.90;16.90;;;26.20;34.20;;;;;;2272125;61;20416;-64
2023/10/13 07:20:32;0.00;0.00;0.62;0.00;0.00;0.62;20.40;15.47;;;26.20;34.20;;;;;;2272469;61;20417;-65
2023/10/13 07:23:17;0.00;0.00;0.62;0.00;0.00;0.62;16.93;14.07;;;26.20;34.20;;;;;;2272516;61;20398;-65
2023/10/13 07:26:05;0.00;0.00;0.62;0.00;0.00;0.62;18.67;13.80;;;26.30;34.30;;;;;;2272549;61;20463;-65
2023/10/13 07:28:51;0.00;0.00;0.62;0.00;0.00;0.62;19.53;13.90;;;26.20;34.30;;;;;;2272023;61;20937;-67
2023/10/13 07:31:39;0.00;0.00;0.62;0.00;0.00;0.62;12.13;10.83;;;26.30;34.30;;;;;;2272478;61;20386;-65
2023/10/13 07:34:26;0.00;0.00;0.62;0.00;0.00;0.62;15.17;12.20;;;26.20;34.30;;;;;;2272348;61;20942;-65
2023/10/13 07:37:14;0.00;0.00;0.62;0.00;0.00;0.62;13.47;10.10;;;26.20;34.30;;;;;;2272461;61;20851;-65
2023/10/13 07:39:58;0.00;0.00;0.62;0.00;0.00;0.62;12.63;9.23;;;26.20;34.40;;;;;;2272360;61;20354;-65
2023/10/13 07:42:43;0.00;0.00;0.62;0.00;0.00;0.62;11.27;8.80;;;26.20;34.40;;;;;;2272564;61;20381;-64
2023/10/13 07:45:38;0.00;0.00;0.62;0.00;0.00;0.62;11.80;9.27;;;26.20;34.40;;;;;;2268279;61;20374;-65
2023/10/13 07:48:25;0.00;0.00;0.62;0.00;0.00;0.62;13.07;9.77;;;26.30;34.50;;;;;;2267999;61;20600;-67
2023/10/13 07:51:22;0.00;0.00;0.62;0.00;0.00;0.62;11.03;8.20;;;26.30;34.50;;;;;;2268195;61;20418;-64
2023/10/13 07:54:08;0.00;0.00;0.62;0.00;0.00;0.62;9.97;7.17;;;26.30;34.50;;;;;;2268819;61;20375;-65
2023/10/13 07:56:55;0.00;0.00;0.62;0.00;0.00;0.62;10.23;7.80;;;26.30;34.50;;;;;;2269082;61;20449;-65
2023/10/13 07:59:47;0.00;0.00;0.62;0.00;0.00;0.62;10.20;7.10;;;26.30;34.60;;;;;;2268175;61;20366;-65
2023/10/13 08:02:48;0.00;0.00;0.62;0.00;0.00;0.62;9.00;7.37;;;26.20;35.20;;;;;;2269097;61;20452;-65
2023/10/13 08:05:55;0.00;0.00;0.62;0.00;0.00;0.62;10.00;6.80;;;26.30;34.60;;;;;;2269165;61;20838;-66
2023/10/13 08:08:43;0.00;0.00;0.62;0.00;0.00;0.62;11.20;6.20;;;26.30;34.60;;;;;;2268519;61;20367;-65
2023/10/13 08:11:34;0.00;0.00;0.62;0.00;0.00;0.62;8.03;6.37;;;26.30;34.60;;;;;;2268543;61;20383;-65
2023/10/13 08:14:22;0.00;0.00;0.62;0.00;0.00;0.62;8.50;5.97;;;26.30;34.60;;;;;;2268956;61;20382;-70
2023/10/13 08:17:12;0.00;0.00;0.62;0.00;0.00;0.62;7.33;5.80;;;26.30;34.70;;;;;;2268958;61;20371;-64
2023/10/13 08:19:57;0.00;0.00;0.62;0.00;0.00;0.62;8.13;5.50;;;26.30;34.70;;;;;;2265368;61;20359;-65
2023/10/13 08:22:47;0.00;0.00;0.62;0.00;0.00;0.62;9.60;6.30;;;26.30;34.70;;;;;;2268866;61;20940;-65
2023/10/13 08:31:25;0.00;0.00;0.62;0.00;0.00;0.62;7.67;5.37;;;26.30;34.80;;;;;;2268338;61;20922;-64
2023/10/13 08:34:16;0.00;0.00;0.62;0.00;0.00;0.62;8.03;4.77;;;26.30;34.80;;;;;;2269083;61;20539;-65
2023/10/13 08:37:10;0.00;0.00;0.62;0.00;0.00;0.62;4.83;4.37;;;26.30;34.90;;;;;;2268903;61;20841;-65
2023/10/13 08:43:09;0.00;0.00;0.62;0.00;0.00;0.62;5.70;4.90;;;26.30;34.90;;;;;;2268891;61;20887;-65
2023/10/13 08:45:58;0.00;0.00;0.62;0.00;0.00;0.62;4.97;4.03;;;26.30;35.00;;;;;;2268320;61;20413;-65
2023/10/13 08:48:47;0.00;0.00;0.62;0.00;0.00;0.62;4.50;3.93;;;26.30;35.00;;;;;;2268479;61;20756;-64
2023/10/13 08:51:43;0.00;0.00;0.62;0.00;0.00;0.62;6.47;4.83;;;26.30;35.00;;;;;;2268710;61;20387;-65
2023/10/13 08:54:34;0.00;0.00;0.62;0.00;0.00;0.62;4.30;3.77;;;26.30;35.00;;;;;;2268743;61;20792;-65
2023/10/13 08:57:32;0.00;0.00;0.62;0.00;0.00;0.62;6.40;3.87;;;26.30;35.00;;;;;;2268854;61;20359;-64
2023/10/13 09:00:28;0.00;0.00;0.62;0.00;0.00;0.62;5.73;3.30;;;26.30;35.00;;;;;;2268498;61;20359;-64
2023/10/13 09:03:29;0.00;0.00;0.62;0.00;0.00;0.62;5.33;3.33;;;26.30;35.00;;;;;;2268976;61;20422;-63
2023/10/13 09:06:19;0.00;0.00;0.62;0.00;0.00;0.62;4.60;3.60;;;26.30;35.10;;;;;;2268911;61;20359;-65
2023/10/13 09:09:07;0.00;0.00;0.62;0.00;0.00;0.62;6.50;3.50;;;26.30;35.10;;;;;;2268627;61;20378;-65
2023/10/13 09:12:04;0.00;0.00;0.62;0.00;0.00;0.62;3.77;3.40;;;26.30;35.20;;;;;;2268857;61;20375;-65
2023/10/13 09:14:57;0.00;0.00;0.62;0.00;0.00;0.62;4.40;3.37;;;26.30;35.20;;;;;;2268642;61;20383;-65
2023/10/13 09:17:51;0.00;0.00;0.62;0.00;0.00;0.62;3.90;3.20;;;26.30;35.20;;;;;;2268900;61;20371;-65
2023/10/13 09:23:24;0.00;0.00;0.62;0.00;0.00;0.62;3.67;2.80;;;26.30;35.20;;;;;;2268593;61;20390;-65
2023/10/13 09:26:09;0.00;0.00;0.62;0.00;0.00;0.62;3.87;2.60;;;26.30;35.20;;;;;;2268861;61;20382;-65
2023/10/13 09:28:53;0.00;0.00;0.62;0.00;0.00;0.62;4.77;3.00;;;26.30;35.30;;;;;;2268311;61;20343;-64
2023/10/13 09:31:39;0.00;0.00;0.62;0.00;0.00;0.62;3.10;2.43;;;26.30;35.30;;;;;;2268779;61;20379;-65
2023/10/13 09:34:29;0.00;0.00;0.62;0.00;0.00;0.62;4.33;3.03;;;26.30;35.30;;;;;;2268804;61;20383;-65
2023/10/13 09:37:20;0.00;0.00;0.62;0.00;0.00;0.62;3.70;2.57;;;26.30;35.30;;;;;;2268459;61;20468;-65
2023/10/13 09:40:24;0.00;0.00;0.62;0.00;0.00;0.62;5.60;4.20;;;26.30;35.30;;;;;;2268349;61;20371;-65
2023/10/13 09:43:14;0.00;0.00;0.62;0.00;0.00;0.62;6.10;4.70;;;26.30;35.30;;;;;;2268751;61;20776;-64
2023/10/13 09:46:07;0.00;0.00;0.62;0.00;0.00;0.62;6.97;5.10;;;26.30;35.40;;;;;;2268839;61;20362;-65
2023/10/13 09:49:14;0.00;0.00;0.62;0.00;0.00;0.62;10.10;7.00;;;26.30;35.40;;;;;;2268263;61;20789;-65
2023/10/13 09:52:02;0.00;0.00;0.62;0.00;0.00;0.62;10.03;8.00;;;26.30;35.50;;;;;;2268047;61;20398;-66
2023/10/13 09:55:13;0.00;0.00;0.62;0.00;0.00;0.62;9.83;6.87;;;26.30;35.50;;;;;;2268718;61;20390;-68
2023/10/13 09:58:10;0.00;0.00;0.62;0.00;0.00;0.62;7.20;5.97;;;26.30;35.60;;;;;;2268300;61;20463;-65
2023/10/13 10:01:06;0.00;0.00;0.62;0.00;0.00;0.62;9.13;6.27;;;26.30;35.60;;;;;;2268838;61;20359;-65
2023/10/13 10:04:08;0.00;0.00;0.62;0.00;0.00;0.62;9.60;6.37;;;26.30;35.60;;;;;;2268454;61;20363;-64
2023/10/13 10:06:54;0.00;0.00;0.62;0.00;0.00;0.62;12.23;8.10;;;26.30;35.60;;;;;;2268503;61;20389;-65
2023/10/13 10:09:38;0.00;0.00;0.62;0.00;0.00;0.62;13.33;7.90;;;26.30;35.60;;;;;;2268322;61;20367;-65
2023/10/13 10:15:35;0.00;0.00;0.62;0.00;0.00;0.62;11.87;8.17;;;26.30;35.70;;;;;;2277892;60;20428;-65
2023/10/13 10:18:22;0.00;0.00;0.62;0.00;0.00;0.62;13.57;7.93;;;26.30;35.80;;;;;;2273278;60;20354;-65
2023/10/13 10:21:09;0.00;0.00;0.62;0.00;0.00;0.62;12.37;8.67;;;26.30;35.80;;;;;;2276675;60;20393;-65
2023/10/13 10:23:54;0.00;0.00;0.62;0.00;0.00;0.62;12.43;7.33;;;26.30;35.80;;;;;;2276886;60;20369;-65
2023/10/13 10:26:50;0.00;0.00;0.62;0.00;0.00;0.62;11.33;8.80;;;26.40;35.90;;;;;;2276756;60;20354;-65
2023/10/13 10:29:35;0.00;0.00;0.62;0.00;0.00;0.62;10.20;7.23;;;26.30;35.90;;;;;;2275730;60;20888;-64
2023/10/13 10:32:20;0.00;0.00;0.62;0.00;0.00;0.62;11.93;8.07;;;26.40;36.00;;;;;;2276699;60;20955;-70
2023/10/13 10:35:20;0.00;0.00;0.62;0.00;0.00;0.62;11.60;7.50;;;26.40;36.00;;;;;;2276605;60;20393;-64
2023/10/13 10:41:13;0.00;0.00;0.62;0.00;0.00;0.62;11.30;7.17;;;26.40;36.00;;;;;;2273714;60;20361;-64
2023/10/13 10:44:02;0.00;0.00;0.62;0.00;0.00;0.62;9.47;6.93;;;26.40;35.90;;;;;;2273354;60;20369;-65
2023/10/13 10:47:01;0.00;0.00;0.62;0.00;0.00;0.62;11.03;7.47;;;26.40;36.00;;;;;;2276859;60;20358;-64
2023/10/13 10:49:46;0.00;0.00;0.62;0.00;0.00;0.62;12.60;7.60;;;26.40;36.10;;;;;;2276005;60;20357;-64
2023/10/13 10:52:37;0.00;0.00;0.62;0.00;0.00;0.62;13.27;8.17;;;26.40;36.10;;;;;;2276740;60;20843;-65
2023/10/13 10:55:28;0.00;0.00;0.62;0.00;0.00;0.62;11.80;7.67;;;26.40;36.10;;;;;;2276650;60;20474;-65
2023/10/13 10:58:28;0.00;0.00;0.62;0.00;0.00;0.62;10.50;7.87;;;26.40;36.10;;;;;;2276007;60;20889;-64
2023/10/13 11:01:20;0.00;0.00;0.62;0.00;0.00;0.62;10.33;7.30;;;26.50;36.20;;;;;;2273477;60;20377;-70
2023/10/13 11:07:08;0.00;0.00;0.62;0.00;0.00;0.62;10.13;7.10;;;26.50;36.30;;;;;;2276507;60;20904;-64
2023/10/13 11:09:56;0.00;0.00;0.62;0.00;0.00;0.62;12.70;6.80;;;26.50;36.30;;;;;;2276528;60;20369;-64
2023/10/13 11:12:54;0.00;0.00;0.62;0.00;0.00;0.62;10.70;7.03;;;26.50;36.40;;;;;;2276183;60;20414;-65
2023/10/13 11:15:44;0.00;0.00;0.62;0.00;0.00;0.62;14.13;7.77;;;26.50;36.50;;;;;;2276681;60;20400;-63
2023/10/13 11:18:40;0.00;0.00;0.62;0.00;0.00;0.62;8.10;6.07;;;26.50;36.50;;;;;;2276302;60;20349;-65
2023/10/13 11:21:30;0.00;0.00;0.62;0.00;0.00;0.62;7.80;5.30;;;26.60;36.70;;;;;;2276590;60;20916;-65
2023/10/13 11:24:17;0.00;0.00;0.62;0.00;0.00;0.62;9.73;5.40;;;26.50;36.70;;;;;;2276801;60;20438;-65
2023/10/13 11:27:02;0.00;0.00;0.62;0.00;0.00;0.62;8.00;5.60;;;26.60;36.70;;;;;;2276181;60;20571;-68
2023/10/13 11:29:52;0.00;0.00;0.62;0.00;0.00;0.62;8.80;5.60;;;26.60;36.80;;;;;;2276246;60;20360;-65
2023/10/13 11:32:40;0.00;0.00;0.62;0.00;0.00;0.62;6.83;4.90;;;26.60;36.90;;;;;;2276627;60;21039;-65
2023/10/13 11:35:28;0.00;0.00;0.62;0.00;0.00;0.62;5.97;4.40;;;26.60;36.90;;;;;;2276339;60;20393;-65
2023/10/13 11:38:14;0.00;0.00;0.62;0.00;0.00;0.62;9.43;5.10;;;26.60;36.90;;;;;;2276186;60;20962;-67
2023/10/13 11:43:52;0.00;0.00;0.62;0.00;0.00;0.62;8.47;4.50;;;26.70;37.00;;;;;;2276653;60;20906;-63
2023/10/13 11:49:33;0.00;0.00;0.62;0.00;0.00;0.62;11.40;5.90;;;26.70;37.10;;;;;;2275896;60;20401;-66
2023/10/13 11:52:19;0.00;0.00;0.62;0.00;0.00;0.62;8.83;4.17;;;26.70;37.10;;;;;;2276367;60;20377;-65
2023/10/13 11:55:04;0.00;0.00;0.62;0.00;0.00;0.62;6.17;4.57;;;26.80;37.20;;;;;;2276310;60;20407;-64
2023/10/13 11:57:49;0.00;0.00;0.62;0.00;0.00;0.62;11.43;4.57;;;26.80;37.20;;;;;;2276256;60;20753;-63
2023/10/13 12:00:53;0.00;0.00;0.62;0.00;0.00;0.62;4.40;3.60;;;26.80;37.20;;;;;;2276590;60;20810;-64
2023/10/13 12:12:41;0.00;0.00;0.62;0.00;0.00;0.62;4.20;3.33;;;26.80;37.20;;;;;;2276191;60;20385;-65
2023/10/13 12:15:34;0.00;0.00;0.62;0.00;0.00;0.62;7.00;4.10;;;26.80;37.20;;;;;;2276279;60;20380;-64
2023/10/13 12:18:19;0.00;0.00;0.62;0.00;0.00;0.62;5.57;3.83;;;26.90;37.30;;;;;;2276265;60;20491;-64
2023/10/13 12:21:12;0.00;0.00;0.62;0.00;0.00;0.62;5.77;3.30;;;26.90;37.30;;;;;;2276416;60;20360;-64
2023/10/13 12:23:57;0.00;0.00;0.62;0.00;0.00;0.62;5.23;3.80;;;26.90;37.30;;;;;;2276562;60;20350;-64
2023/10/13 12:26:42;0.00;0.00;0.62;0.00;0.00;0.62;5.47;3.80;;;26.90;37.30;;;;;;2276277;60;20881;-63
2023/10/13 12:29:31;0.00;0.00;0.62;0.00;0.00;0.62;4.20;3.47;;;26.90;37.30;;;;;;2276250;60;20401;-63
2023/10/13 12:32:20;0.00;0.00;0.62;0.00;0.00;0.62;5.80;3.27;;;26.90;37.30;;;;;;2276386;60;20442;-63
2023/10/13 12:38:04;0.00;0.00;0.62;0.00;0.00;0.62;6.60;3.13;;;27.00;37.40;;;;;;2276490;60;20448;-63
2023/10/13 12:50:05;0.00;0.00;0.62;0.00;0.00;0.62;5.47;3.70;;;27.00;37.30;;;;;;2276881;60;20356;-63
2023/10/13 12:52:49;0.00;0.00;0.62;0.00;0.00;0.62;5.90;3.27;;;27.00;37.30;;;;;;2276959;60;20377;-61
2023/10/13 12:55:40;0.00;0.00;0.62;0.00;0.00;0.62;5.00;3.40;;;27.00;37.30;;;;;;2277176;60;20980;-65
2023/10/13 12:58:26;0.00;0.00;0.62;0.00;0.00;0.62;6.27;3.37;;;27.00;37.40;;;;;;2276827;60;20361;-63
2023/10/13 13:01:13;0.00;0.00;0.62;0.00;0.00;0.62;4.73;3.33;;;27.10;37.40;;;;;;2277140;60;20373;-63
2023/10/13 13:03:58;0.00;0.00;0.62;0.00;0.00;0.62;5.30;3.50;;;27.10;37.40;;;;;;2277186;60;20353;-63
2023/10/13 13:06:43;0.00;0.00;0.62;0.00;0.00;0.62;4.30;3.53;;;27.10;37.40;;;;;;2277119;60;20361;-61
2023/10/13 13:09:27;0.00;0.00;0.62;0.00;0.00;0.62;7.20;3.00;;;27.10;37.40;;;;;;2276637;60;20518;-62
2023/10/13 13:12:51;0.00;0.00;0.62;0.00;0.00;0.62;5.70;3.40;;;27.10;37.40;;;;;;2325504;39;20497;-63
2023/10/13 13:15:37;0.00;0.00;0.62;0.00;0.00;0.62;5.03;3.30;;;27.10;37.50;;;;;;2278751;60;20385;-63
2023/10/13 13:18:21;0.00;0.00;0.62;0.00;0.00;0.62;6.63;4.03;;;27.20;37.60;;;;;;2276510;60;20816;-63
2023/10/13 13:21:06;0.00;0.00;0.62;0.00;0.00;0.62;4.40;3.00;;;27.20;37.60;;;;;;2277008;60;20407;-63
2023/10/13 13:23:54;0.00;0.00;0.62;0.00;0.00;0.62;5.53;3.07;;;27.20;37.60;;;;;;2277073;60;20403;-63
2023/10/13 13:26:40;0.00;0.00;0.62;0.00;0.00;0.62;4.27;2.97;;;27.20;37.80;;;;;;2277147;60;20360;-59
2023/10/13 13:29:25;0.00;0.00;0.62;0.00;0.00;0.62;7.43;3.43;;;27.20;37.60;;;;;;2277044;60;20357;-60
2023/10/13 13:32:24;0.00;0.00;0.62;0.00;0.00;0.62;5.23;3.63;;;27.20;37.60;;;;;;2277104;60;20393;-63
2023/10/13 13:35:13;0.00;0.00;0.62;0.00;0.00;0.62;4.10;3.00;;;27.20;37.50;;;;;;2277049;60;20385;-62
2023/10/13 13:38:06;0.00;0.00;0.62;0.00;0.00;0.62;6.40;3.57;;;27.30;37.60;;;;;;2276622;60;20896;-64
2023/10/13 13:40:53;0.00;0.00;0.62;0.00;0.00;0.62;4.43;2.90;;;27.20;37.50;;;;;;2276618;60;20353;-63
2023/10/13 13:43:38;0.00;0.00;0.62;0.00;0.00;0.62;6.67;3.87;;;27.30;37.60;;;;;;2277147;60;20369;-63
2023/10/13 13:46:27;0.00;0.00;0.62;0.00;0.00;0.62;4.70;3.50;;;27.30;37.50;;;;;;2274483;57;20447;-61